Terminal Aerodrome Forecast
Issued by NWS Lake Charles, LA

Home | Current Version | Previous Version | Text Only | Print | Product List | Glossary On
Versions: 1 2 3 4 5 6 7 8 9 10 11 12 13 14 15 16 17 18 19 20
000
FTUS44 KLCH 291720
TAFLCH
TAF
KLCH 291720Z 2918/3018 16016G27KT P6SM BKN025
     FM300000 16012G21KT P6SM VCSH BKN025
     FM300600 17012KT P6SM SHRA SCT009 OVC020 PROB30 3010/3016 4SM
      SHRA OVC007=

USA.gov is the U.S. government's official web portal to all federal, state and local government web resources and services.